First Ferry Viii — VRS4306 — position and weather

sailwx.info

Track history (hours):
 
Tides and Currents Weather Stations Pressure Air Temp Water Temp Dewpoint Dewpoint Depression Visibility Wind Speed Wind Dir Waves Ship Positions

First Ferry Viii

Last reported at 2016-Jun-24 23:22 UTC. Time now 2016-Jun-25 00:03 UTC.
Position N 22°17' E 114°06'.

Length 36 m; draft 1.8 m.

Type: High speed craft. MMSI: 477995030.

Date/timePositionNaut miles runAvg speedWind from/ knotsBaromVisibWave heightAir tempDewpointWater temp
2016-Jun-24 23:22N 22°17' E 114°06'3 0.4
2016-Jun-24 15:33N 22°17' E 114°10'3 2.0
2016-Jun-24 14:08N 22°17' E 114°07'3 4.9
2016-Jun-24 13:33N 22°17' E 114°10'3 2.4
2016-Jun-24 12:14N 22°17' E 114°06'2 3.4
2016-Jun-24 11:34N 22°18' E 114°09'1 1.3
2016-Jun-24 10:33N 22°18' E 114°07'2 1.1
2016-Jun-24 08:33N 22°17' E 114°10'3 0.7
2016-Jun-24 04:33N 22°19' E 114°12'0 0.0
2016-Jun-24 03:33N 22°19' E 114°12'3 2.9
2016-Jun-24 02:33N 22°20' E 114°09'2 1.2
2016-Jun-24 00:34N 22°17' E 114°10'7 6.5
2016-Jun-23 23:32N 22°16' E 114°02'7 0.8
2016-Jun-23 15:33N 22°17' E 114°10'5 3.7
2016-Jun-23 14:18N 22°16' E 114°05'5 6.4
2016-Jun-23 13:34N 22°17' E 114°10'4 3.0
2016-Jun-23 12:16N 22°17' E 114°05'3 4.1
2016-Jun-23 11:34N 22°18' E 114°08'1 1.3
2016-Jun-23 10:33N 22°17' E 114°07'2 1.2
2016-Jun-23 08:32N 22°17' E 114°10'3 0.9
2016-Jun-23 05:33N 22°19' E 114°12'0 0.1
2016-Jun-23 04:33N 22°19' E 114°12'0 0.0
2016-Jun-23 03:33N 22°19' E 114°12'0 0.0
2016-Jun-23 02:34N 22°19' E 114°12'3 1.3
2016-Jun-23 00:33N 22°17' E 114°10'4 4.0
2016-Jun-22 23:27N 22°17' E 114°05'4 0.6
2016-Jun-22 15:33N 22°17' E 114°10'3 2.1
2016-Jun-22 14:12N 22°17' E 114°07'3 4.4
2016-Jun-22 13:34N 22°17' E 114°10'3 2.3
2016-Jun-22 12:14N 22°17' E 114°06'3 3.7
2016-Jun-22 11:33N 22°18' E 114°09'2 1.9
2016-Jun-22 10:33N 22°18' E 114°07'2 1.2
2016-Jun-22 08:34N 22°17' E 114°10'0 0.0
2016-Jun-22 06:33N 22°17' E 114°10'3 2.7
2016-Jun-22 05:33N 22°19' E 114°12'0 0.0
2016-Jun-22 04:33N 22°19' E 114°12'0 0.0
2016-Jun-22 03:33N 22°19' E 114°12'3 2.8
2016-Jun-22 02:31N 22°20' E 114°09'2 1.2
2016-Jun-22 00:33N 22°17' E 114°09'3 2.2
2016-Jun-21 23:22N 22°18' E 114°07'3 0.4
2016-Jun-21 15:34N 22°17' E 114°10'4 3.1
2016-Jun-21 14:16N 22°16' E 114°05'4 5.7
2016-Jun-21 13:33N 22°17' E 114°10'3 2.4
2016-Jun-21 12:14N 22°17' E 114°06'3 3.8
2016-Jun-21 11:34N 22°18' E 114°09'1 1.4
2016-Jun-21 10:33N 22°18' E 114°07'2 1.6
2016-Jun-21 09:04N 22°16' E 114°05'4 8.1
2016-Jun-21 08:33N 22°17' E 114°10'1 0.5
2016-Jun-21 06:33N 22°18' E 114°09'3 1.5
2016-Jun-21 04:33N 22°18' E 114°12'1 0.7
2016-Jun-21 03:33N 22°19' E 114°12'0 0.0
2016-Jun-21 02:33N 22°19' E 114°12'3 1.3
2016-Jun-21 00:33N 22°17' E 114°10'4 3.6
2016-Jun-20 23:26N 22°17' E 114°05'4 0.5
2016-Jun-20 15:33N 22°17' E 114°10'3 2.0
2016-Jun-20 14:12N 22°17' E 114°07'3 4.2
2016-Jun-20 13:33N 22°17' E 114°10'3 2.5
2016-Jun-20 12:14N 22°17' E 114°06'2 3.3
2016-Jun-20 11:33N 22°18' E 114°08'1 1.2
2016-Jun-20 10:33N 22°18' E 114°07'2 1.1
2016-Jun-20 08:33N 22°17' E 114°10'0 0.0
2016-Jun-20 06:33N 22°17' E 114°10'3 2.6
2016-Jun-20 05:33N 22°19' E 114°12'0 0.0
2016-Jun-20 04:33N 22°19' E 114°12'0 0.0
2016-Jun-20 03:33N 22°19' E 114°12'3 2.6
2016-Jun-20 02:28N 22°20' E 114°09'2 1.2
2016-Jun-20 00:33N 22°17' E 114°09'4 3.3
2016-Jun-19 23:25N 22°17' E 114°05'1 0.1
2016-Jun-19 16:09N 22°17' E 114°06'3 5.8
2016-Jun-19 15:33N 22°17' E 114°10'2 1.7
2016-Jun-19 14:11N 22°17' E 114°07'2 3.5
2016-Jun-19 13:33N 22°17' E 114°10'2 1.6
2016-Jun-19 12:12N 22°17' E 114°07'2 3.2
2016-Jun-19 11:34N 22°17' E 114°09'2 1.6
2016-Jun-19 10:11N 22°18' E 114°07'2 3.6
2016-Jun-19 09:33N 22°17' E 114°10'2 1.6
2016-Jun-19 08:11N 22°17' E 114°07'2 3.1
2016-Jun-19 07:33N 22°17' E 114°09'0 0.1
2016-Jun-19 05:33N 22°18' E 114°09'0 0.2
2016-Jun-19 03:33N 22°17' E 114°09'3 2.4
2016-Jun-19 02:15N 22°17' E 114°06'3 4.7
2016-Jun-19 01:34N 22°17' E 114°10'3 2.3
2016-Jun-19 00:13N 22°17' E 114°06'3 4.8
2016-Jun-18 23:33N 22°17' E 114°09'0 0.2
2016-Jun-18 22:34N 22°17' E 114°10'0 0.0
2016-Jun-18 15:34N 22°17' E 114°10'2 1.7
2016-Jun-18 14:11N 22°18' E 114°07'2 3.8
2016-Jun-18 13:34N 22°17' E 114°10'3 1.9
2016-Jun-18 12:12N 22°17' E 114°07'2 3.1
2016-Jun-18 11:33N 22°18' E 114°09'2 1.9
2016-Jun-18 10:34N 22°17' E 114°07'3 1.3
2016-Jun-18 08:33N 22°17' E 114°10'0 0.0
2016-Jun-18 06:34N 22°17' E 114°10'0 0.0
2016-Jun-18 04:33N 22°17' E 114°10'3 2.6
2016-Jun-18 03:33N 22°19' E 114°12'0 0.0
2016-Jun-18 02:33N 22°19' E 114°12'3 1.3
2016-Jun-18 00:33N 22°17' E 114°10'4 3.9
2016-Jun-17 23:26N 22°17' E 114°05'4 0.6
2016-Jun-17 15:33N 22°17' E 114°10'3 2.7
2016-Jun-17 14:15N 22°17' E 114°06'3 5.1
2016-Jun-17 13:33N 22°17' E 114°10'2 1.2
2016-Jun-17 12:11N 22°18' E 114°08'1 1.8
2016-Jun-17 11:33N 22°18' E 114°09'2 2.4
2016-Jun-17 10:34N 22°17' E 114°06'3 1.5
2016-Jun-17 08:33N 22°17' E 114°10'0 0.0
2016-Jun-17 06:33N 22°17' E 114°10'3 2.7
2016-Jun-17 05:34N 22°19' E 114°12'0 0.0
2016-Jun-17 04:34N 22°19' E 114°12'0 0.0
2016-Jun-17 03:34N 22°19' E 114°12'3 2.4
2016-Jun-17 02:26N 22°19' E 114°09'2 1.1
2016-Jun-17 00:34N 22°17' E 114°10'2 1.8
2016-Jun-16 23:21N 22°17' E 114°07'2 0.3
2016-Jun-16 15:33N 22°17' E 114°10'2 1.8
2016-Jun-16 14:12N 22°17' E 114°07'2 3.8
2016-Jun-16 13:33N 22°17' E 114°10'3 1.9
2016-Jun-16 12:12N 22°17' E 114°07'2 3.4
2016-Jun-16 11:34N 22°17' E 114°09'2 1.8
2016-Jun-16 10:32N 22°17' E 114°07'2 1.1
2016-Jun-16 08:33N 22°17' E 114°10'0 0.0
2016-Jun-16 06:33N 22°17' E 114°10'3 2.6
2016-Jun-16 05:34N 22°19' E 114°12'0 0.0
2016-Jun-16 04:34N 22°19' E 114°12'0 0.0
2016-Jun-16 03:34N 22°19' E 114°12'1 1.0
2016-Jun-16 02:21N 22°18' E 114°11'2 1.1
2016-Jun-16 00:34N 22°17' E 114°09'4 3.6
2016-Jun-15 23:26N 22°17' E 114°05'4 0.6
2016-Jun-15 15:33N 22°17' E 114°10'3 2.0
2016-Jun-15 14:13N 22°17' E 114°07'3 4.1
2016-Jun-15 13:33N 22°17' E 114°10'4 3.1
2016-Jun-15 12:18N 22°17' E 114°05'3 4.2
2016-Jun-15 11:34N 22°18' E 114°09'1 1.4
2016-Jun-15 10:33N 22°17' E 114°07'2 1.2
2016-Jun-15 08:33N 22°17' E 114°10'4 2.9
2016-Jun-15 07:04N 22°16' E 114°05'4 8.6
2016-Jun-15 06:33N 22°17' E 114°10'3 2.7
2016-Jun-15 05:33N 22°19' E 114°12'0 0.0
2016-Jun-15 04:33N 22°19' E 114°12'0 0.0
2016-Jun-15 03:33N 22°19' E 114°12'3 2.6
2016-Jun-15 02:27N 22°20' E 114°09'2 1.3
2016-Jun-15 00:33N 22°17' E 114°10'5 4.9
2016-Jun-14 23:30N 22°17' E 114°04'  
Track history (hours):
 
Tides and Currents Weather Stations Pressure Air Temp Water Temp Dewpoint Dewpoint Depression Visibility Wind Speed Wind Dir Waves Ship Positions

First Ferry Viii

Last reported at 2016-Jun-24 23:22 UTC. Time now 2016-Jun-25 00:03 UTC.
Position N 22°17' E 114°06'.

Length 36 m; draft 1.8 m.

Type: High speed craft. MMSI: 477995030.

Date/timePositionNaut miles runAvg speedWind from/ knotsBaromVisibWave heightAir tempDewpointWater temp
2016-Jun-24 23:22N 22°17' E 114°06'3 0.4
2016-Jun-24 15:33N 22°17' E 114°10'3 2.0
2016-Jun-24 14:08N 22°17' E 114°07'3 4.9
2016-Jun-24 13:33N 22°17' E 114°10'3 2.4
2016-Jun-24 12:14N 22°17' E 114°06'2 3.4
2016-Jun-24 11:34N 22°18' E 114°09'1 1.3
2016-Jun-24 10:33N 22°18' E 114°07'2 1.1
2016-Jun-24 08:33N 22°17' E 114°10'3 0.7
2016-Jun-24 04:33N 22°19' E 114°12'0 0.0
2016-Jun-24 03:33N 22°19' E 114°12'3 2.9
2016-Jun-24 02:33N 22°20' E 114°09'2 1.2
2016-Jun-24 00:34N 22°17' E 114°10'7 6.5
2016-Jun-23 23:32N 22°16' E 114°02'7 0.8
2016-Jun-23 15:33N 22°17' E 114°10'5 3.7
2016-Jun-23 14:18N 22°16' E 114°05'5 6.4
2016-Jun-23 13:34N 22°17' E 114°10'4 3.0
2016-Jun-23 12:16N 22°17' E 114°05'3 4.1
2016-Jun-23 11:34N 22°18' E 114°08'1 1.3
2016-Jun-23 10:33N 22°17' E 114°07'2 1.2
2016-Jun-23 08:32N 22°17' E 114°10'3 0.9
2016-Jun-23 05:33N 22°19' E 114°12'0 0.1
2016-Jun-23 04:33N 22°19' E 114°12'0 0.0
2016-Jun-23 03:33N 22°19' E 114°12'0 0.0
2016-Jun-23 02:34N 22°19' E 114°12'3 1.3
2016-Jun-23 00:33N 22°17' E 114°10'4 4.0
2016-Jun-22 23:27N 22°17' E 114°05'4 0.6
2016-Jun-22 15:33N 22°17' E 114°10'3 2.1
2016-Jun-22 14:12N 22°17' E 114°07'3 4.4
2016-Jun-22 13:34N 22°17' E 114°10'3 2.3
2016-Jun-22 12:14N 22°17' E 114°06'3 3.7
2016-Jun-22 11:33N 22°18' E 114°09'2 1.9
2016-Jun-22 10:33N 22°18' E 114°07'2 1.2
2016-Jun-22 08:34N 22°17' E 114°10'0 0.0
2016-Jun-22 06:33N 22°17' E 114°10'3 2.7
2016-Jun-22 05:33N 22°19' E 114°12'0 0.0
2016-Jun-22 04:33N 22°19' E 114°12'0 0.0
2016-Jun-22 03:33N 22°19' E 114°12'3 2.8
2016-Jun-22 02:31N 22°20' E 114°09'2 1.2
2016-Jun-22 00:33N 22°17' E 114°09'3 2.2
2016-Jun-21 23:22N 22°18' E 114°07'3 0.4
2016-Jun-21 15:34N 22°17' E 114°10'4 3.1
2016-Jun-21 14:16N 22°16' E 114°05'4 5.7
2016-Jun-21 13:33N 22°17' E 114°10'3 2.4
2016-Jun-21 12:14N 22°17' E 114°06'3 3.8
2016-Jun-21 11:34N 22°18' E 114°09'1 1.4
2016-Jun-21 10:33N 22°18' E 114°07'2 1.6
2016-Jun-21 09:04N 22°16' E 114°05'4 8.1
2016-Jun-21 08:33N 22°17' E 114°10'1 0.5
2016-Jun-21 06:33N 22°18' E 114°09'3 1.5
2016-Jun-21 04:33N 22°18' E 114°12'1 0.7
2016-Jun-21 03:33N 22°19' E 114°12'0 0.0
2016-Jun-21 02:33N 22°19' E 114°12'3 1.3
2016-Jun-21 00:33N 22°17' E 114°10'4 3.6
2016-Jun-20 23:26N 22°17' E 114°05'4 0.5
2016-Jun-20 15:33N 22°17' E 114°10'3 2.0
2016-Jun-20 14:12N 22°17' E 114°07'3 4.2
2016-Jun-20 13:33N 22°17' E 114°10'3 2.5
2016-Jun-20 12:14N 22°17' E 114°06'2 3.3
2016-Jun-20 11:33N 22°18' E 114°08'1 1.2
2016-Jun-20 10:33N 22°18' E 114°07'2 1.1
2016-Jun-20 08:33N 22°17' E 114°10'0 0.0
2016-Jun-20 06:33N 22°17' E 114°10'3 2.6
2016-Jun-20 05:33N 22°19' E 114°12'0 0.0
2016-Jun-20 04:33N 22°19' E 114°12'0 0.0
2016-Jun-20 03:33N 22°19' E 114°12'3 2.6
2016-Jun-20 02:28N 22°20' E 114°09'2 1.2
2016-Jun-20 00:33N 22°17' E 114°09'4 3.3
2016-Jun-19 23:25N 22°17' E 114°05'1 0.1
2016-Jun-19 16:09N 22°17' E 114°06'3 5.8
2016-Jun-19 15:33N 22°17' E 114°10'2 1.7
2016-Jun-19 14:11N 22°17' E 114°07'2 3.5
2016-Jun-19 13:33N 22°17' E 114°10'2 1.6
2016-Jun-19 12:12N 22°17' E 114°07'2 3.2
2016-Jun-19 11:34N 22°17' E 114°09'2 1.6
2016-Jun-19 10:11N 22°18' E 114°07'2 3.6
2016-Jun-19 09:33N 22°17' E 114°10'2 1.6
2016-Jun-19 08:11N 22°17' E 114°07'2 3.1
2016-Jun-19 07:33N 22°17' E 114°09'0 0.1
2016-Jun-19 05:33N 22°18' E 114°09'0 0.2
2016-Jun-19 03:33N 22°17' E 114°09'3 2.4
2016-Jun-19 02:15N 22°17' E 114°06'3 4.7
2016-Jun-19 01:34N 22°17' E 114°10'3 2.3
2016-Jun-19 00:13N 22°17' E 114°06'3 4.8
2016-Jun-18 23:33N 22°17' E 114°09'0 0.2
2016-Jun-18 22:34N 22°17' E 114°10'0 0.0
2016-Jun-18 15:34N 22°17' E 114°10'2 1.7
2016-Jun-18 14:11N 22°18' E 114°07'2 3.8
2016-Jun-18 13:34N 22°17' E 114°10'3 1.9
2016-Jun-18 12:12N 22°17' E 114°07'2 3.1
2016-Jun-18 11:33N 22°18' E 114°09'2 1.9
2016-Jun-18 10:34N 22°17' E 114°07'3 1.3
2016-Jun-18 08:33N 22°17' E 114°10'0 0.0
2016-Jun-18 06:34N 22°17' E 114°10'0 0.0
2016-Jun-18 04:33N 22°17' E 114°10'3 2.6
2016-Jun-18 03:33N 22°19' E 114°12'0 0.0
2016-Jun-18 02:33N 22°19' E 114°12'3 1.3
2016-Jun-18 00:33N 22°17' E 114°10'4 3.9
2016-Jun-17 23:26N 22°17' E 114°05'4 0.6
2016-Jun-17 15:33N 22°17' E 114°10'3 2.7
2016-Jun-17 14:15N 22°17' E 114°06'3 5.1
2016-Jun-17 13:33N 22°17' E 114°10'2 1.2
2016-Jun-17 12:11N 22°18' E 114°08'1 1.8
2016-Jun-17 11:33N 22°18' E 114°09'2 2.4
2016-Jun-17 10:34N 22°17' E 114°06'3 1.5
2016-Jun-17 08:33N 22°17' E 114°10'0 0.0
2016-Jun-17 06:33N 22°17' E 114°10'3 2.7
2016-Jun-17 05:34N 22°19' E 114°12'0 0.0
2016-Jun-17 04:34N 22°19' E 114°12'0 0.0
2016-Jun-17 03:34N 22°19' E 114°12'3 2.4
2016-Jun-17 02:26N 22°19' E 114°09'2 1.1
2016-Jun-17 00:34N 22°17' E 114°10'2 1.8
2016-Jun-16 23:21N 22°17' E 114°07'2 0.3
2016-Jun-16 15:33N 22°17' E 114°10'2 1.8
2016-Jun-16 14:12N 22°17' E 114°07'2 3.8
2016-Jun-16 13:33N 22°17' E 114°10'3 1.9
2016-Jun-16 12:12N 22°17' E 114°07'2 3.4
2016-Jun-16 11:34N 22°17' E 114°09'2 1.8
2016-Jun-16 10:32N 22°17' E 114°07'2 1.1
2016-Jun-16 08:33N 22°17' E 114°10'0 0.0
2016-Jun-16 06:33N 22°17' E 114°10'3 2.6
2016-Jun-16 05:34N 22°19' E 114°12'0 0.0
2016-Jun-16 04:34N 22°19' E 114°12'0 0.0
2016-Jun-16 03:34N 22°19' E 114°12'1 1.0
2016-Jun-16 02:21N 22°18' E 114°11'2 1.1
2016-Jun-16 00:34N 22°17' E 114°09'4 3.6
2016-Jun-15 23:26N 22°17' E 114°05'4 0.6
2016-Jun-15 15:33N 22°17' E 114°10'3 2.0
2016-Jun-15 14:13N 22°17' E 114°07'3 4.1
2016-Jun-15 13:33N 22°17' E 114°10'4 3.1
2016-Jun-15 12:18N 22°17' E 114°05'3 4.2
2016-Jun-15 11:34N 22°18' E 114°09'1 1.4
2016-Jun-15 10:33N 22°17' E 114°07'2 1.2
2016-Jun-15 08:33N 22°17' E 114°10'4 2.9
2016-Jun-15 07:04N 22°16' E 114°05'4 8.6
2016-Jun-15 06:33N 22°17' E 114°10'3 2.7
2016-Jun-15 05:33N 22°19' E 114°12'0 0.0
2016-Jun-15 04:33N 22°19' E 114°12'0 0.0
2016-Jun-15 03:33N 22°19' E 114°12'3 2.6
2016-Jun-15 02:27N 22°20' E 114°09'2 1.3
2016-Jun-15 00:33N 22°17' E 114°10'5 4.9
2016-Jun-14 23:30N 22°17' E 114°04'  

Dump ship's entire track history